Time;durP1;ratioP1;P1;durP2;ratioP2;P2;SDS_P1;SDS_P2;PMS_P1;PMS_P2;Temp;Humidity;BMP_temperature;BMP_pressure;BME280_temperature;BME280_humidity;BME280_pressure;Samples;Min_cycle;Max_cycle;Signal;HPM_P1;HPM_P2
2022/05/15 00:02:24;;;;;;;8.55;3.35;;;;;;;13.97;62.45;100766.78;18497441;32;20089;-67
2022/05/15 00:12:29;;;;;;;6.53;3.00;;;;;;;13.67;64.20;100771.47;18497383;32;20097;-66
2022/05/15 00:22:35;;;;;;;4.85;2.70;;;;;;;13.55;64.97;100769.81;18495121;32;20107;-66
2022/05/15 00:32:39;;;;;;;10.32;4.18;;;;;;;13.31;65.28;100773.47;18497258;32;20701;-66
2022/05/15 00:42:43;;;;;;;8.68;4.20;;;;;;;13.57;64.66;100775.06;18495143;32;20232;-66
2022/05/15 00:52:49;;;;;;;6.65;3.30;;;;;;;13.25;65.54;100773.50;18495273;32;20413;-67
2022/05/15 01:02:59;;;;;;;7.18;3.37;;;;;;;13.09;66.23;100772.75;18494985;32;20144;-66
2022/05/15 01:13:02;;;;;;;8.23;3.83;;;;;;;12.80;67.84;100758.06;18494232;32;20107;-66
2022/05/15 01:23:07;;;;;;;7.12;3.65;;;;;;;12.46;68.18;100762.59;18493536;32;20109;-66
2022/05/15 01:33:11;;;;;;;9.48;3.40;;;;;;;12.87;66.78;100762.41;18493116;32;20096;-66
2022/05/15 01:43:15;;;;;;;10.27;4.32;;;;;;;12.37;68.48;100770.47;18492341;32;20099;-66
2022/05/15 01:53:18;;;;;;;10.23;4.22;;;;;;;12.76;67.39;100773.81;18494359;32;20096;-66
2022/05/15 02:03:23;;;;;;;8.02;4.00;;;;;;;12.93;67.07;100771.97;18500583;32;20757;-66
2022/05/15 02:13:26;;;;;;;6.45;3.08;;;;;;;12.66;67.08;100784.34;18499167;32;20119;-66
2022/05/15 02:23:31;;;;;;;5.40;3.03;;;;;;;11.33;71.27;100787.16;18499494;32;20153;-66
2022/05/15 02:33:35;;;;;;;8.63;3.85;;;;;;;11.77;70.17;100792.41;18499671;32;20096;-66
2022/05/15 02:43:39;;;;;;;7.68;3.58;;;;;;;11.67;71.75;100783.72;18499446;32;20116;-66
2022/05/15 02:53:44;;;;;;;7.43;3.37;;;;;;;12.20;68.64;100801.94;18499291;32;20119;-66
2022/05/15 03:03:49;;;;;;;8.73;4.07;;;;;;;11.64;71.86;100799.37;18498362;32;20150;-66
2022/05/15 03:13:52;;;;;;;5.80;3.22;;;;;;;11.91;70.22;100810.69;18499081;32;20569;-66
2022/05/15 03:23:58;;;;;;;8.43;3.90;;;;;;;12.14;68.92;100807.19;18498451;32;20080;-66
2022/05/15 03:34:02;;;;;;;6.43;2.97;;;;;;;11.24;72.48;100819.41;18498345;32;20146;-66
2022/05/15 03:44:07;;;;;;;5.65;2.97;;;;;;;11.23;72.15;100822.88;18497920;32;20111;-66
2022/05/15 03:54:11;;;;;;;8.38;3.55;;;;;;;11.64;71.71;100834.25;18497370;32;20115;-66
2022/05/15 04:04:16;;;;;;;6.97;3.00;;;;;;;12.02;71.39;100834.25;18497132;32;20089;-67
2022/05/15 04:14:19;;;;;;;5.55;3.00;;;;;;;12.23;70.10;100856.03;18495943;32;20469;-66
2022/05/15 04:24:24;;;;;;;5.85;2.97;;;;;;;12.62;70.48;100847.22;18496687;32;20365;-66
2022/05/15 04:34:28;;;;;;;5.93;3.22;;;;;;;12.13;73.69;100858.69;18496025;32;20503;-67
2022/05/15 04:44:33;;;;;;;6.18;2.90;;;;;;;13.29;69.75;100848.66;18495664;32;20365;-67
2022/05/15 04:54:36;;;;;;;5.00;2.78;;;;;;;14.39;67.40;100846.84;18496242;32;20131;-67
2022/05/15 05:04:41;;;;;;;5.30;2.62;;;;;;;15.45;62.89;100848.16;18494751;32;20383;-67
2022/05/15 05:14:44;;;;;;;5.28;2.50;;;;;;;16.33;60.98;100854.59;18494137;32;20108;-67
2022/05/15 05:24:49;;;;;;;4.78;2.60;;;;;;;17.48;57.84;100859.25;18493823;32;20112;-67
2022/05/15 05:34:52;;;;;;;5.00;2.05;;;;;;;17.97;57.21;100858.94;18501391;32;20114;-67
2022/05/15 05:44:57;;;;;;;5.12;2.25;;;;;;;19.10;52.91;100861.13;18501144;32;20141;-67
2022/05/15 05:55:00;;;;;;;4.97;2.00;;;;;;;18.65;55.74;100864.19;18501822;32;20096;-67
2022/05/15 06:05:05;;;;;;;3.15;1.65;;;;;;;19.77;49.56;100864.31;18500625;32;20528;-67
2022/05/15 06:15:10;;;;;;;5.40;1.90;;;;;;;19.71;50.17;100861.84;18501467;32;20133;-67
2022/05/15 06:25:15;;;;;;;5.43;1.75;;;;;;;21.24;46.39;100851.13;18501104;32;20374;-67
2022/05/15 06:35:18;;;;;;;2.37;1.40;;;;;;;21.39;47.34;100862.94;18499653;32;20144;-67
2022/05/15 06:45:23;;;;;;;3.08;1.55;;;;;;;22.09;45.42;100865.41;18498578;32;20433;-67
2022/05/15 06:55:26;;;;;;;2.95;1.60;;;;;;;23.50;40.14;100858.13;18498913;32;20115;-67
2022/05/15 07:05:31;;;;;;;3.25;1.50;;;;;;;22.73;42.07;100858.16;18498875;32;20088;-67
2022/05/15 07:15:36;;;;;;;2.75;1.50;;;;;;;24.17;38.12;100854.81;18497074;32;20131;-67
2022/05/15 07:25:41;;;;;;;2.85;1.30;;;;;;;25.21;34.90;100842.06;18497521;32;20089;-68
2022/05/15 07:35:44;;;;;;;2.45;1.05;;;;;;;29.55;28.75;100838.91;18496794;32;20102;-68
2022/05/15 07:45:49;;;;;;;1.80;1.30;;;;;;;32.72;23.26;100837.31;18497707;32;20129;-68
2022/05/15 07:55:54;;;;;;;2.65;1.40;;;;;;;28.01;29.82;100839.97;18495640;32;20174;-68
2022/05/15 08:16:20;;;;;;;2.45;1.10;;;;;;;26.99;29.13;100837.72;18496147;32;20345;-66
2022/05/15 08:26:25;;;;;;;4.90;1.40;;;;;;;26.28;32.86;100837.66;18495820;32;20107;-67
2022/05/15 08:36:29;;;;;;;2.78;1.12;;;;;;;26.90;30.83;100840.13;18495766;32;20389;-66
2022/05/15 08:46:41;;;;;;;2.55;1.20;;;;;;;27.51;27.91;100829.87;18494708;32;20105;-66
2022/05/15 08:56:47;;;;;;;2.55;1.10;;;;;;;26.52;28.12;100833.53;18495065;32;20127;-67
2022/05/15 09:07:02;;;;;;;0.90;0.65;;;;;;;27.86;27.79;100828.47;18493093;32;20110;-66
2022/05/15 09:17:16;;;;;;;4.12;0.85;;;;;;;28.02;23.50;100814.84;18492541;32;20116;-67
2022/05/15 09:27:22;;;;;;;1.42;0.85;;;;;;;28.31;24.08;100817.34;18492860;32;20107;-65
2022/05/15 09:48:06;;;;;;;2.08;1.00;;;;;;;29.49;22.64;100808.81;18493073;32;20101;-65
2022/05/15 09:58:20;;;;;;;2.15;1.00;;;;;;;28.61;23.33;100813.41;18491013;32;20144;-65
2022/05/15 10:08:26;;;;;;;3.70;0.93;;;;;;;28.50;24.64;100800.78;18490880;32;20092;-66
2022/05/15 10:18:32;;;;;;;3.10;0.90;;;;;;;28.21;24.21;100802.84;18497399;32;20108;-66
2022/05/15 10:28:42;;;;;;;1.15;0.93;;;;;;;28.70;24.04;100801.16;18500771;32;20107;-66
2022/05/15 10:38:52;;;;;;;1.48;0.80;;;;;;;28.76;25.64;100799.84;18498018;32;20128;-65
2022/05/15 10:49:06;;;;;;;2.55;0.93;;;;;;;28.52;24.57;100792.59;18498433;32;20081;-66
2022/05/15 10:59:18;;;;;;;2.37;0.95;;;;;;;28.79;25.13;100780.81;18498330;32;20093;-65
2022/05/15 11:09:27;;;;;;;2.70;1.45;;;;;;;28.82;24.34;100777.06;18498384;32;20453;-63
2022/05/15 11:19:35;;;;;;;2.60;1.07;;;;;;;29.07;24.60;100768.03;18498404;32;20110;-65
2022/05/15 11:29:43;;;;;;;2.65;1.15;;;;;;;29.02;25.51;100754.09;18497417;32;20115;-65
2022/05/15 11:39:58;;;;;;;3.00;1.37;;;;;;;29.04;25.57;100736.03;18497090;32;20080;-66
2022/05/15 11:50:09;;;;;;;2.25;1.23;;;;;;;29.59;23.45;100738.16;18497772;32;20092;-65
2022/05/15 12:00:23;;;;;;;2.75;1.20;;;;;;;29.51;24.35;100732.56;18496667;32;20438;-65
2022/05/15 12:10:53;;;;;;;2.00;1.10;;;;;;;29.34;26.24;100723.91;18495622;32;20092;-65
2022/05/15 12:20:56;;;;;;;;;;;;;;;29.25;25.63;100730.00;18497241;32;20455;-64
2022/05/15 12:31:06;;;;;;;2.50;1.10;;;;;;;29.21;22.54;100699.81;18496616;32;20024;-64
2022/05/15 12:41:35;;;;;;;3.27;1.33;;;;;;;29.69;23.90;100704.22;18495083;32;20107;-65
2022/05/15 12:51:42;;;;;;;1.73;0.90;;;;;;;29.93;23.07;100681.72;18488739;32;236540;-66
2022/05/15 13:01:46;;;;;;;2.42;1.10;;;;;;;29.58;22.93;100690.75;18493756;32;20303;-65
2022/05/15 13:11:55;;;;;;;2.42;0.98;;;;;;;29.33;23.51;100666.59;18495537;32;20085;-65
2022/05/15 13:21:59;;;;;;;2.50;1.17;;;;;;;29.62;25.29;100668.03;18489775;32;20161;-64
2022/05/15 13:32:06;;;;;;;3.90;1.10;;;;;;;30.04;23.04;100651.25;18490984;32;20092;-65
2022/05/15 13:52:37;;;;;;;1.37;1.02;;;;;;;29.59;23.15;100630.59;18498489;32;20110;-65
2022/05/15 14:02:58;;;;;;;2.28;0.98;;;;;;;29.74;24.80;100624.00;18500448;32;20093;-65
2022/05/15 14:13:05;;;;;;;1.92;1.00;;;;;;;30.48;22.70;100616.28;18496837;32;20110;-64
2022/05/15 14:23:08;;;;;;;2.85;1.02;;;;;;;29.83;23.04;100611.66;18496872;32;20111;-65
2022/05/15 14:33:18;;;;;;;2.67;1.00;;;;;;;29.79;21.97;100603.97;18500092;32;20088;-65
2022/05/15 14:43:21;;;;;;;2.47;1.10;;;;;;;29.56;22.77;100593.19;18499357;32;20716;-64
2022/05/15 14:53:29;;;;;;;2.15;1.00;;;;;;;29.65;22.51;100599.69;18497753;32;20100;-64
2022/05/15 15:03:32;;;;;;;2.80;1.10;;;;;;;29.08;23.34;100595.09;18498456;32;20093;-65
2022/05/15 15:13:37;;;;;;;4.47;1.50;;;;;;;29.12;23.29;100596.56;18498057;32;20440;-65
2022/05/15 15:23:42;;;;;;;2.20;1.10;;;;;;;28.92;24.74;100598.94;18495407;32;20107;-65
2022/05/15 15:33:46;;;;;;;1.95;1.00;;;;;;;28.85;24.99;100586.13;18496536;32;20510;-64
2022/05/15 15:43:52;;;;;;;2.20;1.10;;;;;;;28.05;25.07;100585.72;18497370;32;20104;-64
2022/05/15 15:53:58;;;;;;;2.72;1.20;;;;;;;28.08;26.24;100570.25;18494280;32;20520;-64
2022/05/15 16:04:02;;;;;;;1.65;1.10;;;;;;;27.62;26.20;100582.50;18492922;32;20127;-64
2022/05/15 16:14:06;;;;;;;1.73;1.20;;;;;;;27.73;25.09;100576.37;18494711;32;20100;-64
2022/05/15 16:24:09;;;;;;;1.52;1.00;;;;;;;27.52;26.17;100579.59;18492403;32;20096;-63
2022/05/15 16:34:14;;;;;;;3.85;1.25;;;;;;;27.32;26.36;100583.69;18494615;32;20092;-64
2022/05/15 16:44:17;;;;;;;2.35;1.10;;;;;;;27.43;26.50;100588.28;18495567;32;20093;-64
2022/05/15 16:54:22;;;;;;;1.73;1.12;;;;;;;27.14;27.29;100588.50;18492390;32;20441;-64
2022/05/15 17:04:25;;;;;;;2.75;1.10;;;;;;;26.84;28.41;100605.66;18494678;32;20186;-64
2022/05/15 17:14:30;;;;;;;3.58;1.30;;;;;;;26.86;27.92;100593.06;18491691;32;20123;-64
2022/05/15 17:24:33;;;;;;;2.60;1.30;;;;;;;26.62;28.47;100596.41;18495788;32;20092;-64
2022/05/15 17:34:37;;;;;;;2.47;1.27;;;;;;;26.35;29.05;100597.28;18500959;32;20112;-64
2022/05/15 17:44:40;;;;;;;4.53;1.52;;;;;;;25.86;31.58;100598.66;18497915;32;20106;-64
2022/05/15 17:54:45;;;;;;;3.62;1.40;;;;;;;25.49;32.31;100607.09;18500078;32;20114;-64
2022/05/15 18:04:48;;;;;;;5.75;1.58;;;;;;;25.10;33.56;100619.28;18498789;32;20119;-64
2022/05/15 18:14:55;;;;;;;3.72;1.50;;;;;;;24.35;34.75;100618.22;18496112;32;20365;-64
2022/05/15 18:24:58;;;;;;;4.25;1.80;;;;;;;23.69;37.41;100634.25;18498496;32;20101;-64
2022/05/15 18:35:03;;;;;;;3.92;1.60;;;;;;;23.06;40.15;100636.56;18494981;32;20104;-64
2022/05/15 18:45:09;;;;;;;7.37;2.35;;;;;;;21.95;44.32;100640.06;18496655;32;20464;-63
2022/05/15 18:55:16;;;;;;;5.00;1.70;;;;;;;21.48;44.75;100661.59;18498437;32;20096;-63
2022/05/15 19:05:20;;;;;;;5.60;2.12;;;;;;;20.96;45.27;100670.00;18496449;32;20144;-63
2022/05/15 19:15:25;;;;;;;4.43;1.70;;;;;;;20.00;47.12;100673.72;18494541;32;20128;-63
2022/05/15 19:25:29;;;;;;;4.07;2.08;;;;;;;19.68;48.86;100684.53;18497562;32;20118;-63
2022/05/15 19:35:33;;;;;;;4.80;1.80;;;;;;;19.24;49.62;100691.31;18493788;32;20085;-63
2022/05/15 19:45:36;;;;;;;4.60;2.37;;;;;;;18.72;50.00;100694.72;18492409;32;20101;-63
2022/05/15 19:55:42;;;;;;;6.75;2.00;;;;;;;18.61;50.42;100702.16;18495179;32;20100;-63
2022/05/15 20:16:08;;;;;;;4.73;2.07;;;;;;;17.40;55.98;100713.41;18495525;32;20102;-63
2022/05/15 20:26:13;;;;;;;4.62;2.00;;;;;;;16.60;56.93;100728.44;18489499;32;20096;-63
2022/05/15 20:36:18;;;;;;;3.60;1.85;;;;;;;17.29;54.64;100726.88;18495376;32;20425;-63
2022/05/15 20:46:22;;;;;;;6.30;2.45;;;;;;;16.56;56.56;100744.34;18490383;32;20092;-63
2022/05/15 20:56:26;;;;;;;4.78;2.17;;;;;;;16.23;57.66;100748.53;18488645;32;20124;-63
2022/05/15 21:06:30;;;;;;;6.28;2.25;;;;;;;16.37;57.51;100739.47;18484849;32;20119;-63
2022/05/15 21:16:35;;;;;;;5.57;2.00;;;;;;;15.47;60.77;100751.69;18493402;32;20115;-63
2022/05/15 21:26:38;;;;;;;5.00;2.25;;;;;;;15.48;59.83;100753.41;18493181;32;20151;-63
2022/05/15 21:36:42;;;;;;;4.68;2.28;;;;;;;15.03;61.58;100741.84;18493226;32;20106;-63
2022/05/15 21:46:47;;;;;;;6.57;2.72;;;;;;;15.21;61.76;100751.19;18492735;32;20097;-63
2022/05/15 21:56:53;;;;;;;3.92;1.98;;;;;;;14.48;64.49;100754.81;18490766;32;20460;-63
2022/05/15 22:06:56;;;;;;;9.25;2.35;;;;;;;13.58;65.77;100769.78;18492105;32;20092;-63
2022/05/15 22:17:00;;;;;;;4.97;2.47;;;;;;;14.01;64.99;100765.84;18500512;32;20110;-63
2022/05/15 22:27:04;;;;;;;3.35;1.85;;;;;;;14.35;63.82;100758.50;18500648;32;20093;-63
2022/05/15 22:37:10;;;;;;;5.68;2.05;;;;;;;14.52;63.47;100753.03;18500129;32;20107;-63
2022/05/15 22:47:13;;;;;;;6.78;2.33;;;;;;;13.97;64.35;100747.53;18499692;32;20101;-63
2022/05/15 22:57:17;;;;;;;6.10;2.70;;;;;;;13.90;65.70;100748.50;18500080;32;20101;-63
2022/05/15 23:07:29;;;;;;;5.43;2.78;;;;;;;13.76;65.99;100748.66;18498938;32;20368;-63
2022/05/15 23:17:35;;;;;;;4.72;2.40;;;;;;;13.29;67.76;100747.25;18498804;32;20096;-63
2022/05/15 23:27:39;;;;;;;5.55;2.58;;;;;;;13.71;66.39;100753.94;18498936;32;20132;-63
2022/05/15 23:37:43;;;;;;;7.00;3.10;;;;;;;13.29;68.10;100754.28;18498116;32;20669;-63
2022/05/15 23:47:47;;;;;;;6.25;2.50;;;;;;;13.36;67.79;100761.19;18497845;32;20103;-63
2022/05/15 23:57:52;;;;;;;6.37;3.00;;;;;;;12.86;70.09;100768.53;18497704;32;20096;-63
